Time;durP1;ratioP1;P1;durP2;ratioP2;P2;SDS_P1;SDS_P2;PMS_P1;PMS_P2;Temp;Humidity;BMP_temperature;BMP_pressure;BME280_temperature;BME280_humidity;BME280_pressure;Samples;Min_cycle;Max_cycle;Signal;HPM_P1;HPM_P2
2023/03/24 00:00:45;;;;;;;2.60;2.35;;;15.20;99.90;;;;;;5010009;28;20535;-65
2023/03/24 00:03:11;;;;;;;3.65;3.25;;;15.00;99.90;;;;;;5012312;28;20568;-65
2023/03/24 00:05:37;;;;;;;4.07;3.63;;;14.90;99.90;;;;;;5009651;28;20186;-66
2023/03/24 00:08:03;;;;;;;4.27;3.70;;;14.90;99.90;;;;;;5011729;28;20259;-65
2023/03/24 00:10:33;;;;;;;4.50;4.10;;;14.80;99.90;;;;;;5006293;28;20971;-65
2023/03/24 00:12:59;;;;;;;3.90;3.60;;;14.90;99.90;;;;;;5012056;28;20183;-65
2023/03/24 00:15:26;;;;;;;5.10;4.03;;;14.70;99.90;;;;;;5009986;28;20252;-65
2023/03/24 00:17:52;;;;;;;3.88;3.50;;;15.00;99.90;;;;;;5011085;28;20179;-65
2023/03/24 00:20:20;;;;;;;3.78;3.40;;;14.80;99.90;;;;;;5010993;28;20199;-66
2023/03/24 00:22:49;;;;;;;3.75;3.45;;;14.60;99.90;;;;;;5012585;28;20183;-65
2023/03/24 00:25:17;;;;;;;3.65;3.05;;;14.60;99.90;;;;;;5009102;28;20303;-65
2023/03/24 00:27:43;;;;;;;3.65;3.00;;;14.50;99.90;;;;;;5012224;28;20214;-65
2023/03/24 00:30:11;;;;;;;4.15;2.75;;;14.60;99.90;;;;;;5012143;28;20202;-65
2023/03/24 00:32:37;;;;;;;3.17;2.97;;;14.50;99.90;;;;;;5011384;28;20183;-66
2023/03/24 00:35:07;;;;;;;4.13;3.55;;;14.70;99.90;;;;;;5009164;28;20259;-65
2023/03/24 00:37:36;;;;;;;3.10;2.80;;;14.60;99.90;;;;;;5008390;28;20197;-65
2023/03/24 00:40:07;;;;;;;2.60;2.40;;;14.40;99.90;;;;;;5008945;28;20186;-66
2023/03/24 00:42:34;;;;;;;3.10;2.80;;;14.50;99.90;;;;;;5011464;28;20260;-65
2023/03/24 00:45:02;;;;;;;3.00;2.70;;;14.20;99.90;;;;;;5011808;28;20214;-65
2023/03/24 00:47:29;;;;;;;3.38;3.08;;;14.40;99.90;;;;;;5010112;28;20257;-65
2023/03/24 00:49:56;;;;;;;3.17;2.97;;;14.40;99.90;;;;;;5008696;28;20558;-65
2023/03/24 00:52:23;;;;;;;6.03;3.22;;;14.30;99.90;;;;;;5011335;28;20183;-65
2023/03/24 00:54:54;;;;;;;3.10;2.80;;;14.60;99.90;;;;;;5011521;28;20179;-65
2023/03/24 00:57:24;;;;;;;6.20;3.15;;;14.40;99.90;;;;;;5008519;28;20187;-65
2023/03/24 00:59:53;;;;;;;2.85;2.65;;;14.30;99.90;;;;;;5011402;28;20189;-65
2023/03/24 01:02:21;;;;;;;2.83;2.63;;;14.50;99.90;;;;;;5009941;28;20179;-65
2023/03/24 01:04:52;;;;;;;3.08;2.70;;;14.20;99.90;;;;;;5009027;28;20187;-65
2023/03/24 01:07:26;;;;;;;3.13;2.90;;;14.30;99.90;;;;;;5040922;28;20257;-65
2023/03/24 01:09:58;;;;;;;2.90;2.60;;;14.30;99.90;;;;;;5040875;28;20186;-65
2023/03/24 01:12:35;;;;;;;3.90;2.95;;;14.10;99.90;;;;;;5006141;28;20187;-65
2023/03/24 01:15:05;;;;;;;2.75;2.45;;;14.30;99.90;;;;;;5010273;28;20182;-65
2023/03/24 01:17:31;;;;;;;2.85;2.65;;;14.10;99.90;;;;;;5007667;28;20199;-65
2023/03/24 01:19:57;;;;;;;2.95;2.65;;;14.20;99.90;;;;;;5010462;28;20587;-65
2023/03/24 01:22:28;;;;;;;3.85;2.50;;;14.10;99.90;;;;;;5010475;28;21434;-66
2023/03/24 01:24:54;;;;;;;2.90;2.70;;;14.20;99.90;;;;;;5008042;28;20551;-65
2023/03/24 01:27:20;;;;;;;3.00;2.80;;;14.30;99.90;;;;;;5010239;28;20225;-66
2023/03/24 01:29:46;;;;;;;2.83;2.63;;;14.00;99.90;;;;;;5010044;28;20187;-66
2023/03/24 01:32:11;;;;;;;3.13;2.93;;;14.20;99.90;;;;;;5010474;28;20183;-65
2023/03/24 01:34:37;;;;;;;3.43;3.13;;;14.20;99.90;;;;;;5009953;28;20182;-65
2023/03/24 01:37:03;;;;;;;3.13;2.83;;;14.00;99.90;;;;;;5009202;28;20466;-66
2023/03/24 01:39:29;;;;;;;2.70;2.40;;;13.90;99.90;;;;;;5023934;28;20221;-66
2023/03/24 01:41:56;;;;;;;2.72;2.53;;;13.90;99.90;;;;;;5005441;28;20207;-66
2023/03/24 01:44:34;;;;;;;2.50;2.30;;;14.10;99.90;;;;;;5008550;28;20277;-65
2023/03/24 01:47:02;;;;;;;2.40;2.20;;;14.00;99.90;;;;;;5008709;28;20206;-66
2023/03/24 01:49:38;;;;;;;3.25;2.90;;;14.30;99.90;;;;;;5004858;28;20206;-66
2023/03/24 01:52:14;;;;;;;3.15;2.85;;;13.90;99.90;;;;;;5009996;28;20202;-65
2023/03/24 01:54:44;;;;;;;2.40;2.25;;;14.10;99.90;;;;;;5004529;28;20186;-66
2023/03/24 01:57:22;;;;;;;4.28;2.60;;;14.20;99.90;;;;;;5005665;28;20660;-65
2023/03/24 01:59:51;;;;;;;2.70;2.42;;;14.10;99.90;;;;;;5007901;28;20191;-65
2023/03/24 02:02:20;;;;;;;2.45;2.25;;;14.30;99.90;;;;;;5007687;28;20191;-65
2023/03/24 02:04:53;;;;;;;2.50;2.30;;;14.10;99.90;;;;;;5006426;28;20685;-65
2023/03/24 02:07:36;;;;;;;3.67;2.20;;;14.10;99.90;;;;;;5009295;28;20217;-65
2023/03/24 02:10:10;;;;;;;2.58;1.90;;;13.90;99.90;;;;;;5002795;28;20274;-65
2023/03/24 02:12:36;;;;;;;2.35;2.15;;;13.90;99.90;;;;;;5007437;28;20277;-65
2023/03/24 02:15:03;;;;;;;2.80;2.30;;;13.80;99.90;;;;;;5008728;28;20715;-65
2023/03/24 02:17:41;;;;;;;3.58;2.35;;;14.10;99.90;;;;;;5006523;28;20528;-66
2023/03/24 02:20:32;;;;;;;2.35;2.13;;;14.20;99.90;;;;;;5004163;28;20209;-65
2023/03/24 02:23:16;;;;;;;3.33;3.03;;;13.90;99.90;;;;;;5006008;28;20810;-65
2023/03/24 02:25:59;;;;;;;2.53;2.33;;;14.30;99.90;;;;;;5006781;28;20769;-65
2023/03/24 02:28:45;;;;;;;2.20;2.00;;;14.00;99.90;;;;;;5006333;28;20193;-65
2023/03/24 02:31:47;;;;;;;3.15;2.30;;;14.30;99.90;;;;;;5008654;28;20684;-65
2023/03/24 02:34:44;;;;;;;1.98;1.88;;;14.20;99.90;;;;;;5003762;28;20227;-66
2023/03/24 02:37:34;;;;;;;2.85;2.55;;;14.30;99.90;;;;;;5016443;28;20199;-65
2023/03/24 02:40:19;;;;;;;2.67;2.47;;;14.30;99.90;;;;;;5007611;28;20182;-66
2023/03/24 02:43:27;;;;;;;2.85;2.65;;;14.10;99.90;;;;;;5007193;28;20648;-67
2023/03/24 02:46:21;;;;;;;2.50;2.30;;;14.30;99.90;;;;;;4995025;28;20384;-67
2023/03/24 02:49:09;;;;;;;2.72;2.08;;;13.90;99.90;;;;;;5005196;28;20198;-67
2023/03/24 02:51:57;;;;;;;2.75;2.55;;;14.30;99.90;;;;;;5022160;28;20199;-67
2023/03/24 02:54:47;;;;;;;2.50;2.30;;;14.40;99.60;;;;;;5007821;28;20285;-67
2023/03/24 02:57:36;;;;;;;2.47;2.28;;;14.40;98.60;;;;;;5005874;28;20209;-67
2023/03/24 03:00:25;;;;;;;2.30;2.10;;;14.50;98.80;;;;;;5007223;28;20656;-67
2023/03/24 03:02:58;;;;;;;2.17;1.98;;;14.70;98.30;;;;;;5007184;28;20179;-67
2023/03/24 03:05:34;;;;;;;2.10;1.95;;;14.80;98.20;;;;;;5008162;28;20201;-67
2023/03/24 03:08:03;;;;;;;3.63;1.92;;;14.90;98.00;;;;;;5006741;28;20274;-67
2023/03/24 03:10:33;;;;;;;2.42;2.10;;;15.00;97.60;;;;;;5005739;28;20226;-67
2023/03/24 03:13:03;;;;;;;2.38;2.17;;;15.20;97.90;;;;;;5012751;28;20589;-67
2023/03/24 03:15:38;;;;;;;2.05;1.85;;;15.00;97.90;;;;;;5015334;28;20209;-67
2023/03/24 03:18:26;;;;;;;2.95;2.70;;;15.00;97.40;;;;;;5014159;28;20191;-67
2023/03/24 03:21:00;;;;;;;4.05;2.25;;;15.00;97.30;;;;;;5026359;28;20213;-67
2023/03/24 03:23:35;;;;;;;2.58;2.38;;;15.10;97.50;;;;;;5015560;28;20786;-67
2023/03/24 03:26:06;;;;;;;2.67;2.47;;;14.80;97.70;;;;;;5012800;28;20216;-67
2023/03/24 03:28:40;;;;;;;1.88;1.77;;;15.20;97.80;;;;;;5014811;28;20178;-67
2023/03/24 03:31:10;;;;;;;2.72;1.77;;;15.00;97.10;;;;;;5014167;28;20688;-67
2023/03/24 03:33:49;;;;;;;2.28;1.85;;;15.00;96.50;;;;;;5017108;28;20187;-67
2023/03/24 03:36:31;;;;;;;2.20;2.00;;;15.10;96.40;;;;;;5013674;28;20568;-67
2023/03/24 03:39:31;;;;;;;2.00;1.90;;;15.10;96.20;;;;;;5028636;28;20282;-67
2023/03/24 03:41:57;;;;;;;2.72;2.10;;;15.30;96.00;;;;;;5012536;28;20211;-67
2023/03/24 03:44:23;;;;;;;2.20;2.03;;;15.20;96.30;;;;;;5015502;28;20191;-67
2023/03/24 03:46:49;;;;;;;2.23;1.90;;;15.50;96.40;;;;;;5014882;28;20241;-67
2023/03/24 03:49:14;;;;;;;2.10;1.90;;;15.30;96.30;;;;;;5015587;28;20492;-67
2023/03/24 03:51:40;;;;;;;2.33;2.13;;;15.20;96.10;;;;;;5013030;28;20214;-67
2023/03/24 03:54:10;;;;;;;2.30;2.10;;;15.60;95.90;;;;;;5015691;28;20473;-67
2023/03/24 03:56:37;;;;;;;2.40;2.20;;;15.30;96.00;;;;;;5014001;28;20441;-67
2023/03/24 03:59:09;;;;;;;3.55;2.40;;;15.30;95.90;;;;;;5014234;28;20708;-67
2023/03/24 04:01:36;;;;;;;2.40;2.20;;;15.50;95.90;;;;;;5013791;28;20265;-68
2023/03/24 04:04:07;;;;;;;2.33;1.80;;;15.60;95.70;;;;;;5015146;28;20807;-67
2023/03/24 04:07:07;;;;;;;1.80;1.70;;;15.30;95.30;;;;;;5014214;28;20297;-67
2023/03/24 04:09:38;;;;;;;4.55;2.00;;;15.20;95.40;;;;;;5014826;28;20186;-67
2023/03/24 04:12:30;;;;;;;2.42;2.08;;;15.60;95.40;;;;;;5012591;28;20202;-67
2023/03/24 04:15:22;;;;;;;1.92;1.80;;;15.30;95.20;;;;;;5013961;28;20202;-67
2023/03/24 04:18:29;;;;;;;2.30;2.10;;;15.30;95.00;;;;;;5018054;28;20684;-67
2023/03/24 04:21:27;;;;;;;2.97;1.90;;;15.50;94.90;;;;;;5008976;28;20296;-67
2023/03/24 04:24:33;;;;;;;1.75;1.65;;;15.50;94.90;;;;;;5011451;28;20225;-67
2023/03/24 04:27:05;;;;;;;2.40;2.20;;;15.50;94.70;;;;;;5007264;28;20301;-67
2023/03/24 04:29:51;;;;;;;2.60;2.30;;;15.60;94.80;;;;;;5011778;28;20274;-66
2023/03/24 04:32:31;;;;;;;2.35;2.15;;;15.50;94.50;;;;;;5009018;28;20183;-67
2023/03/24 04:35:02;;;;;;;2.17;1.98;;;15.90;94.60;;;;;;5012791;28;20189;-67
2023/03/24 04:37:36;;;;;;;2.53;2.33;;;15.60;94.50;;;;;;5010680;28;20273;-68
2023/03/24 04:40:09;;;;;;;2.35;2.15;;;15.80;94.50;;;;;;5010366;28;20217;-67
2023/03/24 04:42:40;;;;;;;2.40;2.20;;;15.50;94.20;;;;;;5011535;28;20190;-67
2023/03/24 04:45:07;;;;;;;2.40;2.20;;;15.60;94.10;;;;;;5011897;28;20546;-67
2023/03/24 04:47:41;;;;;;;2.45;2.25;;;16.00;94.30;;;;;;5010111;28;20496;-67
2023/03/24 04:50:10;;;;;;;3.75;2.13;;;15.80;94.30;;;;;;5008254;28;20202;-67
2023/03/24 04:52:36;;;;;;;2.45;2.15;;;15.80;94.20;;;;;;5011361;28;20186;-67
2023/03/24 04:55:17;;;;;;;2.10;2.00;;;15.70;94.10;;;;;;5010029;28;20703;-67
2023/03/24 04:57:43;;;;;;;2.95;2.10;;;16.00;94.40;;;;;;5010300;28;20456;-67
2023/03/24 05:00:11;;;;;;;2.30;2.10;;;16.00;94.40;;;;;;5010897;28;20202;-67
2023/03/24 05:02:37;;;;;;;2.75;1.80;;;15.90;94.50;;;;;;5010550;28;20452;-67
2023/03/24 05:05:03;;;;;;;2.30;2.10;;;15.90;94.60;;;;;;5001289;28;20195;-67
2023/03/24 05:07:28;;;;;;;2.33;2.13;;;16.00;94.80;;;;;;5011013;28;20214;-67
2023/03/24 05:09:54;;;;;;;2.37;2.17;;;15.90;94.90;;;;;;5011590;28;20675;-67
2023/03/24 05:12:20;;;;;;;1.70;1.60;;;15.80;95.10;;;;;;5010257;28;20547;-66
2023/03/24 05:14:46;;;;;;;2.30;2.10;;;15.70;94.90;;;;;;5011220;28;20221;-67
2023/03/24 05:17:11;;;;;;;2.53;1.90;;;16.00;95.30;;;;;;5011199;28;20257;-67
2023/03/24 05:19:37;;;;;;;2.77;2.50;;;16.00;95.40;;;;;;5009906;28;20653;-67
2023/03/24 05:22:02;;;;;;;2.90;1.70;;;16.10;95.70;;;;;;5010801;28;20210;-67
2023/03/24 05:24:28;;;;;;;2.10;1.90;;;16.30;95.80;;;;;;5010427;28;20198;-67
2023/03/24 05:26:53;;;;;;;1.53;1.43;;;16.00;95.80;;;;;;5006045;28;20582;-67
2023/03/24 05:29:19;;;;;;;1.93;1.83;;;15.90;96.10;;;;;;5007636;28;20313;-67
2023/03/24 05:31:45;;;;;;;1.77;1.67;;;16.10;96.50;;;;;;5009661;28;20316;-66
2023/03/24 05:34:10;;;;;;;1.83;1.73;;;16.20;97.10;;;;;;5007758;28;20209;-67
2023/03/24 05:36:37;;;;;;;3.03;2.10;;;15.80;97.50;;;;;;5006128;28;20201;-66
2023/03/24 05:39:02;;;;;;;2.95;2.00;;;15.90;98.40;;;;;;5007007;28;20199;-66
2023/03/24 05:41:28;;;;;;;3.07;2.40;;;15.90;99.10;;;;;;5005696;28;20210;-66
2023/03/24 05:43:54;;;;;;;2.20;2.00;;;15.60;99.50;;;;;;5008208;28;20179;-67
2023/03/24 05:46:19;;;;;;;3.30;2.00;;;15.80;99.90;;;;;;5007279;28;20206;-67
2023/03/24 05:48:45;;;;;;;2.90;2.60;;;15.60;99.90;;;;;;5008758;28;20676;-67
2023/03/24 05:51:11;;;;;;;4.80;2.60;;;15.80;99.90;;;;;;5007821;28;20293;-67
2023/03/24 05:53:37;;;;;;;2.43;2.23;;;15.80;99.90;;;;;;5008302;28;20437;-67
2023/03/24 05:56:04;;;;;;;2.80;2.40;;;15.70;99.90;;;;;;5007605;28;22250;-66
2023/03/24 05:58:33;;;;;;;4.30;3.08;;;15.70;99.90;;;;;;5005787;28;20537;-66
2023/03/24 06:00:59;;;;;;;2.25;2.05;;;15.90;99.90;;;;;;5009214;28;20222;-66
2023/03/24 06:03:24;;;;;;;3.60;2.80;;;15.70;99.90;;;;;;5007798;28;20191;-66
2023/03/24 06:05:51;;;;;;;3.43;2.50;;;15.50;99.90;;;;;;5008253;28;20179;-66
2023/03/24 06:08:17;;;;;;;6.47;3.13;;;15.30;99.90;;;;;;5004032;28;20218;-66
2023/03/24 06:10:43;;;;;;;2.87;2.67;;;15.50;99.90;;;;;;5007880;28;20676;-66
2023/03/24 06:13:08;;;;;;;3.07;2.37;;;15.30;99.90;;;;;;5009512;28;20445;-66
2023/03/24 06:15:34;;;;;;;2.80;2.10;;;15.60;99.90;;;;;;5007947;28;20286;-66
2023/03/24 06:18:00;;;;;;;3.55;3.25;;;15.30;99.90;;;;;;5005356;28;20179;-70
2023/03/24 06:20:26;;;;;;;2.57;2.37;;;15.30;99.90;;;;;;5005168;28;20230;-68
2023/03/24 06:22:53;;;;;;;2.90;2.60;;;15.40;99.90;;;;;;5007579;28;20187;-67
2023/03/24 06:25:25;;;;;;;3.33;3.03;;;15.50;99.90;;;;;;5007558;28;20183;-68
2023/03/24 06:27:50;;;;;;;3.20;2.90;;;15.50;99.90;;;;;;5007973;28;20205;-68
2023/03/24 06:30:17;;;;;;;3.20;3.00;;;15.30;99.90;;;;;;5008593;28;20671;-67
2023/03/24 06:32:45;;;;;;;2.50;2.30;;;15.50;99.90;;;;;;5007112;28;20687;-68
2023/03/24 06:35:15;;;;;;;2.40;2.20;;;15.40;99.90;;;;;;5004016;28;20183;-68
2023/03/24 06:37:41;;;;;;;3.70;2.50;;;15.60;99.90;;;;;;5008199;28;20571;-66
2023/03/24 06:40:11;;;;;;;2.73;2.53;;;15.60;99.90;;;;;;5006570;28;20207;-67
2023/03/24 06:42:37;;;;;;;2.88;2.60;;;15.50;99.90;;;;;;5009395;28;20447;-67
2023/03/24 06:45:03;;;;;;;2.90;2.70;;;15.60;99.90;;;;;;4998649;28;20577;-68
2023/03/24 06:47:29;;;;;;;3.10;2.90;;;15.40;99.90;;;;;;5010791;28;20715;-68
2023/03/24 06:49:54;;;;;;;2.40;2.20;;;15.60;99.90;;;;;;5008478;28;20283;-67
2023/03/24 06:52:20;;;;;;;2.90;2.60;;;15.50;99.90;;;;;;5002918;28;20782;-67
2023/03/24 06:54:46;;;;;;;3.03;2.83;;;15.40;99.90;;;;;;5007723;28;20926;-66
2023/03/24 06:57:11;;;;;;;4.07;2.77;;;15.40;99.90;;;;;;5006269;28;20624;-67
2023/03/24 06:59:37;;;;;;;3.73;2.90;;;15.30;99.90;;;;;;5005455;28;20217;-67
2023/03/24 07:02:02;;;;;;;2.60;2.40;;;15.40;99.90;;;;;;5010975;28;20211;-67
2023/03/24 07:04:35;;;;;;;3.03;2.53;;;15.30;99.90;;;;;;5006625;28;20543;-67
2023/03/24 07:07:01;;;;;;;2.70;2.50;;;15.30;99.90;;;;;;5009577;28;20276;-65
2023/03/24 07:09:26;;;;;;;2.70;2.50;;;15.30;99.90;;;;;;5008541;28;20183;-66
2023/03/24 07:11:52;;;;;;;3.03;2.60;;;15.40;99.90;;;;;;5006747;28;20469;-67
2023/03/24 07:14:18;;;;;;;2.60;2.40;;;15.20;99.90;;;;;;5008381;28;20193;-67
2023/03/24 07:16:43;;;;;;;2.90;2.70;;;15.00;99.90;;;;;;5008054;28;20549;-70
2023/03/24 07:19:09;;;;;;;3.43;2.77;;;15.20;99.90;;;;;;5007711;28;20888;-69
2023/03/24 07:21:34;;;;;;;4.17;3.00;;;15.10;99.90;;;;;;5008649;28;20247;-68
2023/03/24 07:24:01;;;;;;;3.00;2.73;;;15.10;99.90;;;;;;5038331;28;20190;-67
2023/03/24 07:26:26;;;;;;;3.33;3.13;;;14.90;99.90;;;;;;5008612;28;20202;-68
2023/03/24 07:28:52;;;;;;;2.90;2.63;;;15.00;99.90;;;;;;5005882;28;20186;-66
2023/03/24 07:31:17;;;;;;;3.20;2.93;;;14.70;99.90;;;;;;5010378;28;20672;-67
2023/03/24 07:33:43;;;;;;;2.90;2.70;;;14.80;99.90;;;;;;5008391;28;20548;-70
2023/03/24 07:36:09;;;;;;;3.20;2.90;;;14.60;99.90;;;;;;5005609;28;20189;-72
2023/03/24 07:38:35;;;;;;;3.50;2.95;;;14.60;99.90;;;;;;5006250;28;20953;-71
2023/03/24 07:41:01;;;;;;;3.47;3.17;;;14.60;99.90;;;;;;5005849;28;20227;-70
2023/03/24 07:43:26;;;;;;;3.60;3.20;;;14.60;99.90;;;;;;5007361;28;20195;-70
2023/03/24 07:45:52;;;;;;;4.50;3.20;;;14.30;99.90;;;;;;5005740;28;20557;-69
2023/03/24 07:48:18;;;;;;;3.23;2.90;;;14.50;99.90;;;;;;5005910;28;20249;-68
2023/03/24 07:50:43;;;;;;;3.57;2.77;;;14.50;99.90;;;;;;4996825;28;20310;-67
2023/03/24 07:53:09;;;;;;;3.10;2.90;;;14.50;99.90;;;;;;5008436;28;20213;-68
2023/03/24 07:55:37;;;;;;;2.87;2.67;;;14.60;99.90;;;;;;5005889;28;20617;-72
2023/03/24 07:58:02;;;;;;;3.10;2.85;;;14.30;99.90;;;;;;5008402;28;20278;-72
2023/03/24 08:00:29;;;;;;;2.90;2.57;;;14.30;99.90;;;;;;5009284;28;20289;-68
2023/03/24 08:02:55;;;;;;;5.15;3.38;;;14.30;99.90;;;;;;5011927;28;20266;-67
2023/03/24 08:05:21;;;;;;;3.77;3.47;;;14.20;99.90;;;;;;5010110;28;21103;-68
2023/03/24 08:07:52;;;;;;;3.17;2.70;;;14.50;99.90;;;;;;5010472;28;20257;-68
2023/03/24 08:10:20;;;;;;;3.00;2.70;;;14.60;99.90;;;;;;5008810;28;20213;-70
2023/03/24 08:12:46;;;;;;;3.13;2.83;;;14.40;99.90;;;;;;5011758;28;20195;-71
2023/03/24 08:15:13;;;;;;;4.78;3.25;;;14.30;99.90;;;;;;5009183;28;20383;-69
2023/03/24 08:17:40;;;;;;;4.13;2.85;;;14.40;99.90;;;;;;5009123;28;20197;-66
2023/03/24 08:20:10;;;;;;;3.00;2.70;;;14.60;99.90;;;;;;5009147;28;20676;-68
2023/03/24 08:22:38;;;;;;;3.08;2.72;;;14.50;99.90;;;;;;5008814;28;20187;-68
2023/03/24 08:25:04;;;;;;;4.32;3.20;;;14.60;99.90;;;;;;5010849;28;20228;-68
2023/03/24 08:27:30;;;;;;;4.40;2.90;;;14.60;99.90;;;;;;5025576;28;20229;-70
2023/03/24 08:29:55;;;;;;;3.17;2.90;;;14.50;99.90;;;;;;5009560;28;20179;-68
2023/03/24 08:32:21;;;;;;;3.30;2.90;;;14.80;99.90;;;;;;5010705;28;20186;-68
2023/03/24 08:34:47;;;;;;;3.30;3.00;;;15.10;99.90;;;;;;5007508;28;20262;-69
2023/03/24 08:37:12;;;;;;;3.37;3.10;;;15.10;99.90;;;;;;5037692;28;20191;-68
2023/03/24 08:39:38;;;;;;;4.83;3.43;;;15.10;99.90;;;;;;5012299;28;20194;-67
2023/03/24 08:42:04;;;;;;;3.13;2.83;;;15.20;99.90;;;;;;5008896;28;20484;-67
2023/03/24 08:44:30;;;;;;;3.90;3.53;;;15.20;99.90;;;;;;5006501;28;20183;-67
2023/03/24 08:46:55;;;;;;;4.10;3.53;;;15.20;99.90;;;;;;5010033;28;20672;-68
2023/03/24 08:49:21;;;;;;;3.30;3.07;;;15.00;99.90;;;;;;5008386;28;20561;-68
2023/03/24 08:51:47;;;;;;;3.13;2.83;;;15.50;99.90;;;;;;5003549;28;20693;-70
2023/03/24 08:54:12;;;;;;;3.37;3.07;;;15.20;99.90;;;;;;5007141;28;20707;-68
2023/03/24 08:56:39;;;;;;;3.83;3.53;;;14.90;99.90;;;;;;5022681;28;20202;-67
2023/03/24 08:59:05;;;;;;;3.17;2.58;;;15.10;99.90;;;;;;5007513;28;20187;-72
2023/03/24 09:01:34;;;;;;;3.10;2.90;;;15.10;99.90;;;;;;5010053;28;20223;-70
2023/03/24 09:04:01;;;;;;;2.83;2.58;;;15.20;99.90;;;;;;5005460;28;20273;-67
2023/03/24 09:06:27;;;;;;;2.30;2.10;;;15.30;99.90;;;;;;5007106;28;20202;-68
2023/03/24 09:08:53;;;;;;;2.63;2.43;;;15.50;99.90;;;;;;5007639;28;20197;-68
2023/03/24 09:11:20;;;;;;;3.85;2.55;;;15.50;99.90;;;;;;5007237;28;20526;-67
2023/03/24 09:13:47;;;;;;;3.88;2.42;;;15.30;99.90;;;;;;5007900;28;20183;-67
2023/03/24 09:16:13;;;;;;;2.70;2.50;;;15.10;99.90;;;;;;5004567;28;20184;-71
2023/03/24 09:18:39;;;;;;;2.88;2.58;;;15.30;99.90;;;;;;5008385;28;20191;-70
2023/03/24 09:21:06;;;;;;;2.30;2.15;;;15.40;99.90;;;;;;5009559;28;20706;-72
2023/03/24 09:23:32;;;;;;;2.15;1.95;;;15.60;99.90;;;;;;5011006;28;20272;-72
2023/03/24 09:25:58;;;;;;;3.43;2.50;;;15.50;99.90;;;;;;5008313;28;20193;-69
2023/03/24 09:28:24;;;;;;;2.50;2.30;;;15.40;99.90;;;;;;5010285;28;20452;-73
2023/03/24 09:30:55;;;;;;;2.53;2.33;;;15.50;99.90;;;;;;5008861;28;20203;-69
2023/03/24 09:33:20;;;;;;;2.55;2.25;;;15.50;99.90;;;;;;5011079;28;20175;-76
2023/03/24 09:35:56;;;;;;;2.40;2.20;;;15.50;99.90;;;;;;5009864;28;20190;-72
2023/03/24 09:38:23;;;;;;;2.20;2.10;;;15.60;99.90;;;;;;5042561;28;20178;-69
2023/03/24 09:40:55;;;;;;;3.35;2.35;;;15.80;99.90;;;;;;5009076;28;20202;-70
2023/03/24 09:43:31;;;;;;;2.40;2.30;;;15.90;99.90;;;;;;5011240;28;20182;-67
2023/03/24 09:46:00;;;;;;;2.67;2.50;;;16.20;99.90;;;;;;5009868;28;20305;-69
2023/03/24 09:48:38;;;;;;;2.28;2.08;;;16.50;99.90;;;;;;5009504;28;20678;-71
2023/03/24 09:51:09;;;;;;;2.40;2.20;;;16.50;99.90;;;;;;5007043;28;20203;-70
2023/03/24 09:53:43;;;;;;;3.08;2.33;;;17.20;99.90;;;;;;5011076;28;20182;-69
2023/03/24 09:56:17;;;;;;;2.30;2.10;;;17.50;99.90;;;;;;5003211;28;20183;-68
2023/03/24 09:58:47;;;;;;;3.38;2.42;;;17.50;99.90;;;;;;5009113;28;20223;-70
2023/03/24 10:01:15;;;;;;;2.35;2.00;;;17.30;99.90;;;;;;5006804;28;20316;-71
2023/03/24 10:03:42;;;;;;;2.33;2.13;;;17.10;99.90;;;;;;5011606;28;20233;-72
2023/03/24 10:06:37;;;;;;;2.47;2.28;;;17.50;99.90;;;;;;5009138;28;20250;-69
2023/03/24 10:09:15;;;;;;;2.75;2.55;;;18.40;99.90;;;;;;5007527;28;20197;-70
2023/03/24 10:11:49;;;;;;;2.60;2.40;;;19.50;99.70;;;;;;5009952;28;20241;-69
2023/03/24 10:14:31;;;;;;;3.63;2.30;;;20.20;97.30;;;;;;5009063;28;20210;-69
2023/03/24 10:17:04;;;;;;;2.10;2.00;;;20.50;96.30;;;;;;5007686;28;20532;-70
2023/03/24 10:20:01;;;;;;;2.35;2.15;;;20.10;95.60;;;;;;5007809;28;20488;-74
2023/03/24 10:22:34;;;;;;;2.85;2.00;;;19.60;96.80;;;;;;5020353;28;20214;-71
2023/03/24 10:25:07;;;;;;;2.10;1.95;;;19.30;97.30;;;;;;5009381;28;20738;-71
2023/03/24 10:27:33;;;;;;;2.20;2.05;;;19.30;97.40;;;;;;5006864;28;20298;-69
2023/03/24 10:30:27;;;;;;;2.40;2.20;;;19.10;97.50;;;;;;5009639;28;20261;-68
2023/03/24 10:32:53;;;;;;;2.60;2.40;;;19.30;97.20;;;;;;5035781;28;20600;-69
2023/03/24 10:35:28;;;;;;;2.72;2.53;;;19.30;97.00;;;;;;5006492;28;20186;-67
2023/03/24 10:37:57;;;;;;;1.80;1.70;;;19.00;96.50;;;;;;5005771;28;20302;-68
2023/03/24 10:40:31;;;;;;;1.70;1.60;;;19.10;96.30;;;;;;5003677;28;20214;-68
2023/03/24 10:42:58;;;;;;;1.95;1.75;;;18.90;95.80;;;;;;5006546;28;20290;-68
2023/03/24 10:45:31;;;;;;;2.00;1.60;;;18.80;96.00;;;;;;5007192;28;20193;-71
2023/03/24 10:48:00;;;;;;;3.00;2.15;;;18.70;96.00;;;;;;5006925;28;20210;-65
2023/03/24 10:50:28;;;;;;;1.85;1.67;;;18.50;96.00;;;;;;5006640;28;20353;-69
2023/03/24 10:52:54;;;;;;;1.70;1.23;;;18.20;95.80;;;;;;5004166;28;20183;-68
2023/03/24 10:55:23;;;;;;;3.03;1.53;;;18.30;96.10;;;;;;5005772;28;20175;-68
2023/03/24 10:57:55;;;;;;;1.45;1.25;;;18.30;96.00;;;;;;5003133;28;20195;-74
2023/03/24 11:00:28;;;;;;;1.90;1.45;;;18.20;96.50;;;;;;5019384;28;20290;-73
2023/03/24 11:02:58;;;;;;;1.42;1.30;;;18.30;96.80;;;;;;5011682;28;20183;-74
2023/03/24 11:05:34;;;;;;;1.50;1.40;;;18.30;96.00;;;;;;5006392;28;20187;-74
2023/03/24 11:08:18;;;;;;;1.52;1.42;;;18.30;96.60;;;;;;5005677;28;20290;-68
2023/03/24 11:10:43;;;;;;;1.35;1.25;;;18.30;96.30;;;;;;5002229;28;20261;-67
2023/03/24 11:13:30;;;;;;;3.40;1.40;;;18.00;96.30;;;;;;5008036;28;20183;-67
2023/03/24 11:16:04;;;;;;;0.93;0.93;;;18.40;96.40;;;;;;5004075;28;20188;-68
2023/03/24 11:18:30;;;;;;;2.58;1.25;;;18.60;95.50;;;;;;5023315;28;20183;-67
2023/03/24 11:21:04;;;;;;;2.80;1.30;;;19.00;95.00;;;;;;5009624;28;20206;-67
2023/03/24 11:23:37;;;;;;;1.25;1.15;;;19.20;94.30;;;;;;5007853;28;20756;-67
2023/03/24 11:26:21;;;;;;;5.25;1.75;;;19.20;94.10;;;;;;5004140;28;20191;-67
2023/03/24 11:28:52;;;;;;;2.30;1.23;;;19.20;93.90;;;;;;5005461;28;20182;-68
2023/03/24 11:31:24;;;;;;;1.80;1.55;;;19.20;93.80;;;;;;5007960;28;20239;-67
2023/03/24 11:33:55;;;;;;;1.35;1.25;;;19.30;93.40;;;;;;5010261;28;20186;-67
2023/03/24 11:36:31;;;;;;;1.90;1.63;;;19.40;93.40;;;;;;5011226;28;20226;-67
2023/03/24 11:39:00;;;;;;;1.10;1.00;;;19.10;93.20;;;;;;5012929;28;20187;-67
2023/03/24 11:41:26;;;;;;;1.60;1.50;;;19.40;92.80;;;;;;5008371;28;20215;-67
2023/03/24 11:44:16;;;;;;;1.75;1.20;;;18.90;92.90;;;;;;5010797;28;20544;-67
2023/03/24 11:46:45;;;;;;;1.88;1.27;;;18.90;93.00;;;;;;5041602;28;20241;-67
2023/03/24 11:49:15;;;;;;;1.48;1.00;;;18.90;92.70;;;;;;5009890;28;20205;-66
2023/03/24 11:51:45;;;;;;;1.60;1.10;;;18.70;92.80;;;;;;5010802;28;20211;-67
2023/03/24 11:54:17;;;;;;;1.15;1.05;;;18.50;93.20;;;;;;5009266;28;20657;-68
2023/03/24 11:56:55;;;;;;;1.08;0.90;;;18.50;93.30;;;;;;5006307;28;20282;-67
2023/03/24 11:59:45;;;;;;;1.10;1.00;;;18.20;93.20;;;;;;5010856;28;20203;-67
2023/03/24 12:02:13;;;;;;;0.80;0.80;;;18.10;93.50;;;;;;5008901;28;20193;-69
2023/03/24 12:04:51;;;;;;;1.35;0.98;;;18.00;93.40;;;;;;5021862;28;20721;-67
2023/03/24 12:07:53;;;;;;;0.80;0.80;;;18.40;93.00;;;;;;5008205;28;20218;-69
2023/03/24 12:11:03;;;;;;;1.70;1.20;;;18.10;92.60;;;;;;5007402;28;20340;-69
2023/03/24 12:13:32;;;;;;;1.20;1.10;;;18.10;92.90;;;;;;5011068;28;20262;-67
2023/03/24 12:16:13;;;;;;;1.58;1.15;;;18.20;92.40;;;;;;5003050;28;20199;-68
2023/03/24 12:18:54;;;;;;;2.13;0.90;;;18.40;92.30;;;;;;5022154;28;20191;-73
2023/03/24 12:21:39;;;;;;;1.20;0.90;;;18.20;92.40;;;;;;5008451;28;20218;-68
2023/03/24 12:24:22;;;;;;;0.80;0.65;;;18.40;92.20;;;;;;5005126;28;20186;-69
2023/03/24 12:26:54;;;;;;;0.80;0.70;;;17.90;91.60;;;;;;5008190;28;20202;-69
2023/03/24 12:29:34;;;;;;;0.80;0.70;;;17.80;91.90;;;;;;5010945;28;20194;-70
2023/03/24 12:32:56;;;;;;;0.90;0.80;;;17.60;91.80;;;;;;5008744;28;20199;-69
2023/03/24 12:35:44;;;;;;;0.80;0.80;;;17.80;91.90;;;;;;5040997;28;20193;-72
2023/03/24 12:38:37;;;;;;;0.95;0.73;;;17.80;92.10;;;;;;5005805;28;20301;-68
2023/03/24 12:41:36;;;;;;;0.80;0.70;;;18.10;92.30;;;;;;5006795;28;20222;-69
2023/03/24 12:44:34;;;;;;;1.67;1.35;;;18.10;91.60;;;;;;5007264;28;20222;-69
2023/03/24 12:47:23;;;;;;;1.38;0.85;;;18.20;91.70;;;;;;5004682;28;20226;-70
2023/03/24 12:50:07;;;;;;;0.80;0.80;;;18.20;91.80;;;;;;5003184;28;20199;-69
2023/03/24 12:52:33;;;;;;;1.02;0.90;;;18.10;91.90;;;;;;5007712;28;20188;-68
2023/03/24 12:55:09;;;;;;;0.80;0.80;;;17.90;92.20;;;;;;5009046;28;20560;-66
2023/03/24 12:57:42;;;;;;;1.00;0.90;;;18.00;92.60;;;;;;5007155;28;20205;-67
2023/03/24 13:00:33;;;;;;;2.67;1.00;;;18.00;92.40;;;;;;5010855;28;20203;-67
2023/03/24 13:03:10;;;;;;;0.70;0.70;;;17.90;92.90;;;;;;5001967;28;20704;-68
2023/03/24 13:05:57;;;;;;;1.27;1.17;;;17.80;92.90;;;;;;5005561;28;20198;-67
2023/03/24 13:08:31;;;;;;;1.27;1.00;;;17.90;93.50;;;;;;5007207;28;20178;-68
2023/03/24 13:11:04;;;;;;;0.98;0.80;;;18.00;93.40;;;;;;5007009;28;20215;-68
2023/03/24 13:13:38;;;;;;;1.35;0.85;;;18.20;92.80;;;;;;5008227;28;20213;-68